sensor_id;sensor_type;location;lat;lon;timestamp;temperature;humidity
41435;DHT22;27177;22.262;114.192;2023-02-08T00:01:59;16.00;99.90
41435;DHT22;27177;22.262;114.192;2023-02-08T00:04:25;16.00;99.90
41435;DHT22;27177;22.262;114.192;2023-02-08T00:06:51;16.00;99.90
41435;DHT22;27177;22.262;114.192;2023-02-08T00:09:18;16.00;99.90
41435;DHT22;27177;22.262;114.192;2023-02-08T00:11:44;16.10;99.90
41435;DHT22;27177;22.262;114.192;2023-02-08T00:14:10;16.00;99.90
41435;DHT22;27177;22.262;114.192;2023-02-08T00:16:36;16.10;99.90
41435;DHT22;27177;22.262;114.192;2023-02-08T00:19:03;16.10;99.90
41435;DHT22;27177;22.262;114.192;2023-02-08T00:21:29;16.10;99.90
41435;DHT22;27177;22.262;114.192;2023-02-08T00:23:55;16.10;99.90
41435;DHT22;27177;22.262;114.192;2023-02-08T00:26:22;16.10;99.90
41435;DHT22;27177;22.262;114.192;2023-02-08T00:28:48;16.00;99.90
41435;DHT22;27177;22.262;114.192;2023-02-08T00:31:14;16.00;99.90
41435;DHT22;27177;22.262;114.192;2023-02-08T00:33:41;16.10;99.90
41435;DHT22;27177;22.262;114.192;2023-02-08T00:36:07;16.10;99.90
41435;DHT22;27177;22.262;114.192;2023-02-08T00:38:34;16.10;99.90
41435;DHT22;27177;22.262;114.192;2023-02-08T00:41:00;16.10;99.90
41435;DHT22;27177;22.262;114.192;2023-02-08T00:43:26;16.00;99.90
41435;DHT22;27177;22.262;114.192;2023-02-08T00:45:53;16.10;99.90
41435;DHT22;27177;22.262;114.192;2023-02-08T00:48:20;16.10;99.90
41435;DHT22;27177;22.262;114.192;2023-02-08T00:51:11;16.00;99.90
41435;DHT22;27177;22.262;114.192;2023-02-08T00:53:36;16.10;99.90
41435;DHT22;27177;22.262;114.192;2023-02-08T00:56:02;16.00;99.90
41435;DHT22;27177;22.262;114.192;2023-02-08T00:58:29;16.10;99.90
41435;DHT22;27177;22.262;114.192;2023-02-08T01:00:55;16.10;99.90
41435;DHT22;27177;22.262;114.192;2023-02-08T01:03:21;16.00;99.90
41435;DHT22;27177;22.262;114.192;2023-02-08T01:05:48;16.10;99.90
41435;DHT22;27177;22.262;114.192;2023-02-08T01:08:14;16.10;99.90
41435;DHT22;27177;22.262;114.192;2023-02-08T01:10:40;16.10;99.90
41435;DHT22;27177;22.262;114.192;2023-02-08T01:13:07;16.10;99.90
41435;DHT22;27177;22.262;114.192;2023-02-08T01:15:34;16.20;99.90
41435;DHT22;27177;22.262;114.192;2023-02-08T01:18:16;16.20;99.90
41435;DHT22;27177;22.262;114.192;2023-02-08T01:20:43;16.10;99.90
41435;DHT22;27177;22.262;114.192;2023-02-08T01:23:09;16.20;99.90
41435;DHT22;27177;22.262;114.192;2023-02-08T01:25:35;16.10;99.90
41435;DHT22;27177;22.262;114.192;2023-02-08T01:28:01;16.10;99.90
41435;DHT22;27177;22.262;114.192;2023-02-08T01:30:28;16.10;99.90
41435;DHT22;27177;22.262;114.192;2023-02-08T01:32:54;16.20;99.90
41435;DHT22;27177;22.262;114.192;2023-02-08T01:35:20;16.20;99.90
41435;DHT22;27177;22.262;114.192;2023-02-08T01:37:47;16.20;99.90
41435;DHT22;27177;22.262;114.192;2023-02-08T01:40:13;16.30;99.90
41435;DHT22;27177;22.262;114.192;2023-02-08T01:42:39;16.40;99.90
41435;DHT22;27177;22.262;114.192;2023-02-08T01:47:42;16.40;99.90
41435;DHT22;27177;22.262;114.192;2023-02-08T01:50:09;16.40;99.90
41435;DHT22;27177;22.262;114.192;2023-02-08T01:52:36;16.50;99.90
41435;DHT22;27177;22.262;114.192;2023-02-08T01:55:04;16.50;99.90
41435;DHT22;27177;22.262;114.192;2023-02-08T01:57:33;16.50;99.90
41435;DHT22;27177;22.262;114.192;2023-02-08T02:00:21;16.60;99.90
41435;DHT22;27177;22.262;114.192;2023-02-08T02:02:47;16.60;99.90
41435;DHT22;27177;22.262;114.192;2023-02-08T02:05:16;16.60;99.90
41435;DHT22;27177;22.262;114.192;2023-02-08T02:07:43;16.50;99.90
41435;DHT22;27177;22.262;114.192;2023-02-08T02:13:01;16.60;99.90
41435;DHT22;27177;22.262;114.192;2023-02-08T02:15:27;16.60;99.90
41435;DHT22;27177;22.262;114.192;2023-02-08T02:17:54;16.60;99.90
41435;DHT22;27177;22.262;114.192;2023-02-08T02:38:47;16.70;99.90
41435;DHT22;27177;22.262;114.192;2023-02-08T02:44:08;16.70;99.90
41435;DHT22;27177;22.262;114.192;2023-02-08T02:46:42;16.80;99.90
41435;DHT22;27177;22.262;114.192;2023-02-08T02:51:57;16.90;99.90
41435;DHT22;27177;22.262;114.192;2023-02-08T02:54:31;17.00;99.90
41435;DHT22;27177;22.262;114.192;2023-02-08T02:57:00;16.90;99.90
41435;DHT22;27177;22.262;114.192;2023-02-08T02:59:35;16.90;99.90
41435;DHT22;27177;22.262;114.192;2023-02-08T03:10:01;17.00;99.90
41435;DHT22;27177;22.262;114.192;2023-02-08T03:20:32;17.00;99.90
41435;DHT22;27177;22.262;114.192;2023-02-08T03:28:07;17.00;99.90
41435;DHT22;27177;22.262;114.192;2023-02-08T03:30:45;17.10;99.90
41435;DHT22;27177;22.262;114.192;2023-02-08T03:33:23;17.10;99.90
41435;DHT22;27177;22.262;114.192;2023-02-08T03:35:53;17.20;99.90
41435;DHT22;27177;22.262;114.192;2023-02-08T03:38:40;17.20;99.90
41435;DHT22;27177;22.262;114.192;2023-02-08T03:41:13;17.30;99.90
41435;DHT22;27177;22.262;114.192;2023-02-08T03:44:26;17.30;99.90
41435;DHT22;27177;22.262;114.192;2023-02-08T03:46:28;17.40;99.90
41435;DHT22;27177;22.262;114.192;2023-02-08T03:49:00;17.50;99.90
41435;DHT22;27177;22.262;114.192;2023-02-08T03:51:28;17.60;99.90
41435;DHT22;27177;22.262;114.192;2023-02-08T03:53:56;17.70;99.90
41435;DHT22;27177;22.262;114.192;2023-02-08T03:56:32;17.70;99.90
41435;DHT22;27177;22.262;114.192;2023-02-08T03:59:07;17.70;99.90
41435;DHT22;27177;22.262;114.192;2023-02-08T04:01:44;17.90;99.90
41435;DHT22;27177;22.262;114.192;2023-02-08T04:04:11;18.00;99.90
41435;DHT22;27177;22.262;114.192;2023-02-08T04:06:39;18.20;99.90
41435;DHT22;27177;22.262;114.192;2023-02-08T04:09:05;18.30;99.90
41435;DHT22;27177;22.262;114.192;2023-02-08T04:11:31;18.40;99.90
41435;DHT22;27177;22.262;114.192;2023-02-08T04:13:57;18.60;99.90
41435;DHT22;27177;22.262;114.192;2023-02-08T04:16:24;18.70;99.90
41435;DHT22;27177;22.262;114.192;2023-02-08T04:18:50;18.90;99.90
41435;DHT22;27177;22.262;114.192;2023-02-08T04:21:16;18.90;99.90
41435;DHT22;27177;22.262;114.192;2023-02-08T04:23:45;19.00;99.90
41435;DHT22;27177;22.262;114.192;2023-02-08T04:26:11;19.00;99.90
41435;DHT22;27177;22.262;114.192;2023-02-08T04:28:43;19.00;99.90
41435;DHT22;27177;22.262;114.192;2023-02-08T04:31:09;19.00;99.90
41435;DHT22;27177;22.262;114.192;2023-02-08T04:33:36;19.00;99.90
41435;DHT22;27177;22.262;114.192;2023-02-08T04:36:02;18.90;99.90
41435;DHT22;27177;22.262;114.192;2023-02-08T04:38:30;18.60;99.90
41435;DHT22;27177;22.262;114.192;2023-02-08T04:40:56;18.60;99.90
41435;DHT22;27177;22.262;114.192;2023-02-08T04:43:25;18.50;99.90
41435;DHT22;27177;22.262;114.192;2023-02-08T04:45:51;18.10;99.90
41435;DHT22;27177;22.262;114.192;2023-02-08T04:48:21;18.00;99.90
41435;DHT22;27177;22.262;114.192;2023-02-08T04:50:53;17.80;99.90
41435;DHT22;27177;22.262;114.192;2023-02-08T04:53:19;17.60;99.90
41435;DHT22;27177;22.262;114.192;2023-02-08T04:55:46;17.50;99.90
41435;DHT22;27177;22.262;114.192;2023-02-08T04:58:12;17.40;99.90
41435;DHT22;27177;22.262;114.192;2023-02-08T05:00:39;17.40;99.90
41435;DHT22;27177;22.262;114.192;2023-02-08T05:03:05;17.40;99.90
41435;DHT22;27177;22.262;114.192;2023-02-08T05:05:31;17.40;99.90
41435;DHT22;27177;22.262;114.192;2023-02-08T05:07:57;17.50;99.90
41435;DHT22;27177;22.262;114.192;2023-02-08T05:10:24;17.50;99.90
41435;DHT22;27177;22.262;114.192;2023-02-08T05:12:50;17.60;99.90
41435;DHT22;27177;22.262;114.192;2023-02-08T05:15:16;17.60;99.90
41435;DHT22;27177;22.262;114.192;2023-02-08T05:17:43;17.70;99.90
41435;DHT22;27177;22.262;114.192;2023-02-08T05:20:09;17.70;99.90
41435;DHT22;27177;22.262;114.192;2023-02-08T05:22:36;17.70;99.90
41435;DHT22;27177;22.262;114.192;2023-02-08T05:25:02;17.80;99.90
41435;DHT22;27177;22.262;114.192;2023-02-08T05:27:33;17.90;99.90
41435;DHT22;27177;22.262;114.192;2023-02-08T05:29:59;17.90;99.90
41435;DHT22;27177;22.262;114.192;2023-02-08T05:32:26;17.90;99.90
41435;DHT22;27177;22.262;114.192;2023-02-08T05:34:52;17.90;99.90
41435;DHT22;27177;22.262;114.192;2023-02-08T05:37:19;18.00;99.90
41435;DHT22;27177;22.262;114.192;2023-02-08T05:39:48;17.90;99.90
41435;DHT22;27177;22.262;114.192;2023-02-08T05:42:15;18.00;99.90
41435;DHT22;27177;22.262;114.192;2023-02-08T05:44:41;18.10;99.90
41435;DHT22;27177;22.262;114.192;2023-02-08T05:47:08;18.10;99.90
41435;DHT22;27177;22.262;114.192;2023-02-08T05:49:34;18.20;99.90
41435;DHT22;27177;22.262;114.192;2023-02-08T05:52:00;18.30;99.90
41435;DHT22;27177;22.262;114.192;2023-02-08T05:54:27;18.30;99.90
41435;DHT22;27177;22.262;114.192;2023-02-08T05:56:53;18.30;99.90
41435;DHT22;27177;22.262;114.192;2023-02-08T05:59:19;18.30;99.90
41435;DHT22;27177;22.262;114.192;2023-02-08T06:01:48;18.30;99.90
41435;DHT22;27177;22.262;114.192;2023-02-08T06:04:15;18.40;99.90
41435;DHT22;27177;22.262;114.192;2023-02-08T06:06:41;18.40;99.90
41435;DHT22;27177;22.262;114.192;2023-02-08T06:09:08;18.40;99.90
41435;DHT22;27177;22.262;114.192;2023-02-08T06:11:34;18.40;99.90
41435;DHT22;27177;22.262;114.192;2023-02-08T06:14:01;18.30;99.90
41435;DHT22;27177;22.262;114.192;2023-02-08T06:16:28;18.30;99.90
41435;DHT22;27177;22.262;114.192;2023-02-08T06:18:54;18.30;99.90
41435;DHT22;27177;22.262;114.192;2023-02-08T06:21:20;18.30;99.90
41435;DHT22;27177;22.262;114.192;2023-02-08T06:23:46;18.30;99.90
41435;DHT22;27177;22.262;114.192;2023-02-08T06:26:15;18.30;99.90
41435;DHT22;27177;22.262;114.192;2023-02-08T06:28:41;18.30;99.90
41435;DHT22;27177;22.262;114.192;2023-02-08T06:31:08;18.40;99.90
41435;DHT22;27177;22.262;114.192;2023-02-08T06:33:34;18.40;99.90
41435;DHT22;27177;22.262;114.192;2023-02-08T06:36:01;18.30;99.90
41435;DHT22;27177;22.262;114.192;2023-02-08T06:38:27;18.30;99.90
41435;DHT22;27177;22.262;114.192;2023-02-08T06:40:53;18.30;99.90
41435;DHT22;27177;22.262;114.192;2023-02-08T06:43:19;18.30;99.90
41435;DHT22;27177;22.262;114.192;2023-02-08T06:45:46;18.30;99.90
41435;DHT22;27177;22.262;114.192;2023-02-08T06:48:12;18.20;99.90
41435;DHT22;27177;22.262;114.192;2023-02-08T06:50:39;18.20;99.90
41435;DHT22;27177;22.262;114.192;2023-02-08T06:53:05;18.20;99.90
41435;DHT22;27177;22.262;114.192;2023-02-08T06:55:31;18.20;99.90
41435;DHT22;27177;22.262;114.192;2023-02-08T06:57:58;18.20;99.90
41435;DHT22;27177;22.262;114.192;2023-02-08T07:00:24;18.20;99.90
41435;DHT22;27177;22.262;114.192;2023-02-08T07:02:51;18.30;99.90
41435;DHT22;27177;22.262;114.192;2023-02-08T07:05:18;18.20;99.90
41435;DHT22;27177;22.262;114.192;2023-02-08T07:07:44;18.20;99.90
41435;DHT22;27177;22.262;114.192;2023-02-08T07:10:13;18.20;99.90
41435;DHT22;27177;22.262;114.192;2023-02-08T07:12:39;18.20;99.90
41435;DHT22;27177;22.262;114.192;2023-02-08T07:15:06;18.20;99.90
41435;DHT22;27177;22.262;114.192;2023-02-08T07:17:32;18.20;99.90
41435;DHT22;27177;22.262;114.192;2023-02-08T07:19:58;18.20;99.90
41435;DHT22;27177;22.262;114.192;2023-02-08T07:22:25;18.20;99.90
41435;DHT22;27177;22.262;114.192;2023-02-08T07:24:51;18.20;99.90
41435;DHT22;27177;22.262;114.192;2023-02-08T07:27:17;18.20;99.90
41435;DHT22;27177;22.262;114.192;2023-02-08T07:29:43;18.20;99.90
41435;DHT22;27177;22.262;114.192;2023-02-08T07:32:10;18.20;99.90
41435;DHT22;27177;22.262;114.192;2023-02-08T07:34:36;18.20;99.90
41435;DHT22;27177;22.262;114.192;2023-02-08T07:37:10;18.20;99.90
41435;DHT22;27177;22.262;114.192;2023-02-08T07:39:36;18.20;99.90
41435;DHT22;27177;22.262;114.192;2023-02-08T07:42:02;18.10;99.90
41435;DHT22;27177;22.262;114.192;2023-02-08T07:44:30;18.10;99.90
41435;DHT22;27177;22.262;114.192;2023-02-08T07:46:58;18.20;99.90
41435;DHT22;27177;22.262;114.192;2023-02-08T07:49:26;18.20;99.90
41435;DHT22;27177;22.262;114.192;2023-02-08T07:51:52;18.20;99.90
41435;DHT22;27177;22.262;114.192;2023-02-08T07:56:55;18.20;99.90
41435;DHT22;27177;22.262;114.192;2023-02-08T07:59:21;18.10;99.90
41435;DHT22;27177;22.262;114.192;2023-02-08T08:01:48;18.00;99.90
41435;DHT22;27177;22.262;114.192;2023-02-08T08:04:14;18.10;99.90
41435;DHT22;27177;22.262;114.192;2023-02-08T08:06:40;18.10;99.90
41435;DHT22;27177;22.262;114.192;2023-02-08T08:09:07;18.10;99.90
41435;DHT22;27177;22.262;114.192;2023-02-08T08:11:33;18.20;99.90
41435;DHT22;27177;22.262;114.192;2023-02-08T08:13:59;18.10;99.90
41435;DHT22;27177;22.262;114.192;2023-02-08T08:16:26;18.20;99.90
41435;DHT22;27177;22.262;114.192;2023-02-08T08:18:52;18.20;99.90
41435;DHT22;27177;22.262;114.192;2023-02-08T08:21:18;18.30;99.90
41435;DHT22;27177;22.262;114.192;2023-02-08T08:23:44;18.30;99.90
41435;DHT22;27177;22.262;114.192;2023-02-08T08:26:12;18.20;99.90
41435;DHT22;27177;22.262;114.192;2023-02-08T08:28:38;18.30;99.90
41435;DHT22;27177;22.262;114.192;2023-02-08T08:31:09;18.30;99.90
41435;DHT22;27177;22.262;114.192;2023-02-08T08:33:35;18.40;99.90
41435;DHT22;27177;22.262;114.192;2023-02-08T08:36:02;18.50;99.90
41435;DHT22;27177;22.262;114.192;2023-02-08T08:38:28;18.50;99.90
41435;DHT22;27177;22.262;114.192;2023-02-08T08:40:54;18.60;99.90
41435;DHT22;27177;22.262;114.192;2023-02-08T08:43:20;18.50;99.90
41435;DHT22;27177;22.262;114.192;2023-02-08T08:45:47;18.60;99.90
41435;DHT22;27177;22.262;114.192;2023-02-08T08:48:13;18.60;99.90
41435;DHT22;27177;22.262;114.192;2023-02-08T08:50:39;18.60;99.90
41435;DHT22;27177;22.262;114.192;2023-02-08T08:53:08;18.60;99.90
41435;DHT22;27177;22.262;114.192;2023-02-08T08:55:34;18.60;99.90
41435;DHT22;27177;22.262;114.192;2023-02-08T08:58:01;18.60;99.90
41435;DHT22;27177;22.262;114.192;2023-02-08T09:00:27;18.50;99.90
41435;DHT22;27177;22.262;114.192;2023-02-08T09:02:53;18.50;99.90
41435;DHT22;27177;22.262;114.192;2023-02-08T09:05:19;18.50;99.90
41435;DHT22;27177;22.262;114.192;2023-02-08T09:07:45;18.40;99.90
41435;DHT22;27177;22.262;114.192;2023-02-08T09:10:12;18.40;99.90
41435;DHT22;27177;22.262;114.192;2023-02-08T09:12:41;18.40;99.90
41435;DHT22;27177;22.262;114.192;2023-02-08T09:15:09;18.30;99.90
41435;DHT22;27177;22.262;114.192;2023-02-08T09:17:36;18.20;99.90
41435;DHT22;27177;22.262;114.192;2023-02-08T09:20:02;18.20;99.90
41435;DHT22;27177;22.262;114.192;2023-02-08T09:22:29;18.20;99.90
41435;DHT22;27177;22.262;114.192;2023-02-08T09:24:56;18.20;99.90
41435;DHT22;27177;22.262;114.192;2023-02-08T09:30:28;18.10;99.90
41435;DHT22;27177;22.262;114.192;2023-02-08T09:32:55;18.10;99.90
41435;DHT22;27177;22.262;114.192;2023-02-08T09:35:23;18.10;99.90
41435;DHT22;27177;22.262;114.192;2023-02-08T09:37:51;18.10;99.90
41435;DHT22;27177;22.262;114.192;2023-02-08T09:40:27;18.10;99.90
41435;DHT22;27177;22.262;114.192;2023-02-08T09:50:44;18.00;99.90
41435;DHT22;27177;22.262;114.192;2023-02-08T09:53:14;17.90;99.90
41435;DHT22;27177;22.262;114.192;2023-02-08T09:55:58;17.90;99.90
41435;DHT22;27177;22.262;114.192;2023-02-08T10:00:59;17.70;99.90
41435;DHT22;27177;22.262;114.192;2023-02-08T10:03:32;17.70;99.90
41435;DHT22;27177;22.262;114.192;2023-02-08T10:05:59;17.60;99.90
41435;DHT22;27177;22.262;114.192;2023-02-08T10:08:26;17.70;99.90
41435;DHT22;27177;22.262;114.192;2023-02-08T10:10:54;17.70;99.90
41435;DHT22;27177;22.262;114.192;2023-02-08T10:13:31;17.60;99.90
41435;DHT22;27177;22.262;114.192;2023-02-08T10:18:36;17.50;99.90
41435;DHT22;27177;22.262;114.192;2023-02-08T10:31:41;17.50;99.90
41435;DHT22;27177;22.262;114.192;2023-02-08T10:34:24;17.40;99.90
41435;DHT22;27177;22.262;114.192;2023-02-08T10:36:54;17.40;99.90
41435;DHT22;27177;22.262;114.192;2023-02-08T10:39:27;17.40;99.90
41435;DHT22;27177;22.262;114.192;2023-02-08T10:41:54;17.50;99.90
41435;DHT22;27177;22.262;114.192;2023-02-08T10:46:53;17.40;99.90
41435;DHT22;27177;22.262;114.192;2023-02-08T10:49:22;17.40;99.90
41435;DHT22;27177;22.262;114.192;2023-02-08T10:51:52;17.50;99.90
41435;DHT22;27177;22.262;114.192;2023-02-08T10:54:19;17.50;99.90
41435;DHT22;27177;22.262;114.192;2023-02-08T10:56:46;17.50;99.90
41435;DHT22;27177;22.262;114.192;2023-02-08T10:59:20;17.50;99.90
41435;DHT22;27177;22.262;114.192;2023-02-08T11:01:47;17.50;99.90
41435;DHT22;27177;22.262;114.192;2023-02-08T11:04:14;17.50;99.90
41435;DHT22;27177;22.262;114.192;2023-02-08T11:06:41;17.50;99.90
41435;DHT22;27177;22.262;114.192;2023-02-08T11:09:18;17.50;99.90
41435;DHT22;27177;22.262;114.192;2023-02-08T11:11:45;17.50;99.90
41435;DHT22;27177;22.262;114.192;2023-02-08T11:14:15;17.50;99.90
41435;DHT22;27177;22.262;114.192;2023-02-08T11:16:41;17.50;99.90
41435;DHT22;27177;22.262;114.192;2023-02-08T11:19:19;17.40;99.90
41435;DHT22;27177;22.262;114.192;2023-02-08T11:21:47;17.40;99.90
41435;DHT22;27177;22.262;114.192;2023-02-08T11:26:41;17.40;99.90
41435;DHT22;27177;22.262;114.192;2023-02-08T11:29:15;17.50;99.90
41435;DHT22;27177;22.262;114.192;2023-02-08T11:32:13;17.50;99.90
41435;DHT22;27177;22.262;114.192;2023-02-08T11:36:58;17.50;99.90
41435;DHT22;27177;22.262;114.192;2023-02-08T11:42:01;17.40;99.90
41435;DHT22;27177;22.262;114.192;2023-02-08T11:46:54;17.50;99.90
41435;DHT22;27177;22.262;114.192;2023-02-08T11:49:24;17.40;99.90
41435;DHT22;27177;22.262;114.192;2023-02-08T11:51:52;17.40;99.90
41435;DHT22;27177;22.262;114.192;2023-02-08T11:54:34;17.40;99.90
41435;DHT22;27177;22.262;114.192;2023-02-08T11:57:08;17.40;99.90
41435;DHT22;27177;22.262;114.192;2023-02-08T11:59:35;17.40;99.90
41435;DHT22;27177;22.262;114.192;2023-02-08T12:02:17;17.40;99.90
41435;DHT22;27177;22.262;114.192;2023-02-08T12:04:45;17.40;99.90
41435;DHT22;27177;22.262;114.192;2023-02-08T12:15:22;17.40;99.90
41435;DHT22;27177;22.262;114.192;2023-02-08T12:30:43;17.40;99.90
41435;DHT22;27177;22.262;114.192;2023-02-08T12:35:52;17.40;99.90
41435;DHT22;27177;22.262;114.192;2023-02-08T12:41:18;17.40;99.90
41435;DHT22;27177;22.262;114.192;2023-02-08T12:43:55;17.40;99.90
41435;DHT22;27177;22.262;114.192;2023-02-08T12:46:30;17.50;99.90
41435;DHT22;27177;22.262;114.192;2023-02-08T12:49:02;17.50;99.90
41435;DHT22;27177;22.262;114.192;2023-02-08T12:54:03;17.50;99.90
41435;DHT22;27177;22.262;114.192;2023-02-08T12:56:31;17.50;99.90
41435;DHT22;27177;22.262;114.192;2023-02-08T12:59:00;17.50;99.90
41435;DHT22;27177;22.262;114.192;2023-02-08T13:01:38;17.50;99.90
41435;DHT22;27177;22.262;114.192;2023-02-08T13:04:10;17.40;99.90
41435;DHT22;27177;22.262;114.192;2023-02-08T13:06:39;17.40;99.90
41435;DHT22;27177;22.262;114.192;2023-02-08T13:09:14;17.50;99.90
41435;DHT22;27177;22.262;114.192;2023-02-08T13:14:17;17.40;99.90
41435;DHT22;27177;22.262;114.192;2023-02-08T13:16:49;17.50;99.90
41435;DHT22;27177;22.262;114.192;2023-02-08T13:21:50;17.50;99.90
41435;DHT22;27177;22.262;114.192;2023-02-08T13:24:37;17.50;99.90
41435;DHT22;27177;22.262;114.192;2023-02-08T13:27:04;17.50;99.90
41435;DHT22;27177;22.262;114.192;2023-02-08T13:29:34;17.40;99.90
41435;DHT22;27177;22.262;114.192;2023-02-08T13:32:05;17.50;99.90
41435;DHT22;27177;22.262;114.192;2023-02-08T13:37:03;17.50;99.90
41435;DHT22;27177;22.262;114.192;2023-02-08T13:41:57;17.40;99.90
41435;DHT22;27177;22.262;114.192;2023-02-08T13:44:30;17.40;99.90
41435;DHT22;27177;22.262;114.192;2023-02-08T13:46:57;17.40;99.90
41435;DHT22;27177;22.262;114.192;2023-02-08T13:52:08;17.30;99.90
41435;DHT22;27177;22.262;114.192;2023-02-08T13:54:35;17.30;99.90
41435;DHT22;27177;22.262;114.192;2023-02-08T13:57:01;17.40;99.90
41435;DHT22;27177;22.262;114.192;2023-02-08T13:59:37;17.30;99.90
41435;DHT22;27177;22.262;114.192;2023-02-08T14:04:44;17.30;99.90
41435;DHT22;27177;22.262;114.192;2023-02-08T14:09:42;17.30;99.90
41435;DHT22;27177;22.262;114.192;2023-02-08T14:14:42;17.20;99.90
41435;DHT22;27177;22.262;114.192;2023-02-08T14:20:07;17.20;99.90
41435;DHT22;27177;22.262;114.192;2023-02-08T14:22:47;17.10;99.90
41435;DHT22;27177;22.262;114.192;2023-02-08T14:25:17;17.10;99.90
41435;DHT22;27177;22.262;114.192;2023-02-08T14:27:51;17.10;99.90
41435;DHT22;27177;22.262;114.192;2023-02-08T14:32:48;17.10;99.90
41435;DHT22;27177;22.262;114.192;2023-02-08T14:35:23;17.10;99.90
41435;DHT22;27177;22.262;114.192;2023-02-08T14:38:25;17.10;99.90
41435;DHT22;27177;22.262;114.192;2023-02-08T14:40:46;17.00;99.90
41435;DHT22;27177;22.262;114.192;2023-02-08T14:43:33;17.10;99.90
41435;DHT22;27177;22.262;114.192;2023-02-08T14:48:46;17.10;99.90
41435;DHT22;27177;22.262;114.192;2023-02-08T14:51:14;17.10;99.90
41435;DHT22;27177;22.262;114.192;2023-02-08T14:56:27;17.10;99.90
41435;DHT22;27177;22.262;114.192;2023-02-08T14:58:58;17.10;99.90
41435;DHT22;27177;22.262;114.192;2023-02-08T15:03:58;17.10;99.90
41435;DHT22;27177;22.262;114.192;2023-02-08T15:09:15;17.10;99.90
41435;DHT22;27177;22.262;114.192;2023-02-08T15:11:46;17.10;99.90
41435;DHT22;27177;22.262;114.192;2023-02-08T15:14:15;17.10;99.90
41435;DHT22;27177;22.262;114.192;2023-02-08T15:16:43;17.10;99.90
41435;DHT22;27177;22.262;114.192;2023-02-08T15:19:31;17.10;99.90
41435;DHT22;27177;22.262;114.192;2023-02-08T15:22:15;17.10;99.90
41435;DHT22;27177;22.262;114.192;2023-02-08T15:25:12;17.10;99.90
41435;DHT22;27177;22.262;114.192;2023-02-08T15:27:31;17.00;99.90
41435;DHT22;27177;22.262;114.192;2023-02-08T15:29:58;17.00;99.90
41435;DHT22;27177;22.262;114.192;2023-02-08T15:32:25;17.00;99.90
41435;DHT22;27177;22.262;114.192;2023-02-08T15:34:53;17.00;99.90
41435;DHT22;27177;22.262;114.192;2023-02-08T15:37:19;17.00;99.90
41435;DHT22;27177;22.262;114.192;2023-02-08T15:39:56;16.90;99.90
41435;DHT22;27177;22.262;114.192;2023-02-08T15:42:27;16.90;99.90
41435;DHT22;27177;22.262;114.192;2023-02-08T15:44:55;16.90;99.90
41435;DHT22;27177;22.262;114.192;2023-02-08T15:47:26;16.90;99.90
41435;DHT22;27177;22.262;114.192;2023-02-08T15:49:53;16.80;99.90
41435;DHT22;27177;22.262;114.192;2023-02-08T15:52:21;16.90;99.90
41435;DHT22;27177;22.262;114.192;2023-02-08T15:54:48;16.90;99.90
41435;DHT22;27177;22.262;114.192;2023-02-08T15:59:44;16.90;99.90
41435;DHT22;27177;22.262;114.192;2023-02-08T16:04:44;16.90;99.90
41435;DHT22;27177;22.262;114.192;2023-02-08T16:07:24;16.90;99.90
41435;DHT22;27177;22.262;114.192;2023-02-08T16:09:52;16.90;99.90
41435;DHT22;27177;22.262;114.192;2023-02-08T16:12:19;16.90;99.90
41435;DHT22;27177;22.262;114.192;2023-02-08T16:14:46;16.90;99.90
41435;DHT22;27177;22.262;114.192;2023-02-08T16:20:19;16.80;99.90
41435;DHT22;27177;22.262;114.192;2023-02-08T16:22:53;16.80;99.90
41435;DHT22;27177;22.262;114.192;2023-02-08T16:25:34;16.80;99.90
41435;DHT22;27177;22.262;114.192;2023-02-08T16:28:01;16.80;99.90
41435;DHT22;27177;22.262;114.192;2023-02-08T16:30:28;16.80;99.90
41435;DHT22;27177;22.262;114.192;2023-02-08T16:32:54;16.80;99.90
41435;DHT22;27177;22.262;114.192;2023-02-08T16:35:25;16.80;99.90
41435;DHT22;27177;22.262;114.192;2023-02-08T16:38:03;16.80;99.90
41435;DHT22;27177;22.262;114.192;2023-02-08T16:40:49;16.80;99.90
41435;DHT22;27177;22.262;114.192;2023-02-08T16:43:26;16.80;99.90
41435;DHT22;27177;22.262;114.192;2023-02-08T16:48:35;16.80;99.90
41435;DHT22;27177;22.262;114.192;2023-02-08T16:51:02;16.80;99.90
41435;DHT22;27177;22.262;114.192;2023-02-08T16:53:29;16.80;99.90
41435;DHT22;27177;22.262;114.192;2023-02-08T16:55:57;16.80;99.90
41435;DHT22;27177;22.262;114.192;2023-02-08T16:58:24;16.80;99.90
41435;DHT22;27177;22.262;114.192;2023-02-08T17:00:50;16.80;99.90
41435;DHT22;27177;22.262;114.192;2023-02-08T17:03:16;16.70;99.90
41435;DHT22;27177;22.262;114.192;2023-02-08T17:05:43;16.70;99.90
41435;DHT22;27177;22.262;114.192;2023-02-08T17:08:17;16.70;99.90
41435;DHT22;27177;22.262;114.192;2023-02-08T17:10:50;16.70;99.90
41435;DHT22;27177;22.262;114.192;2023-02-08T17:13:27;16.70;99.90
41435;DHT22;27177;22.262;114.192;2023-02-08T17:15:53;16.70;99.90
41435;DHT22;27177;22.262;114.192;2023-02-08T17:18:20;16.70;99.90
41435;DHT22;27177;22.262;114.192;2023-02-08T17:20:46;16.70;99.90
41435;DHT22;27177;22.262;114.192;2023-02-08T17:23:13;16.70;99.90
41435;DHT22;27177;22.262;114.192;2023-02-08T17:25:43;16.70;99.90
41435;DHT22;27177;22.262;114.192;2023-02-08T17:28:16;16.70;99.90
41435;DHT22;27177;22.262;114.192;2023-02-08T17:30:43;16.70;99.90
41435;DHT22;27177;22.262;114.192;2023-02-08T17:33:12;16.70;99.90
41435;DHT22;27177;22.262;114.192;2023-02-08T17:35:46;16.70;99.90
41435;DHT22;27177;22.262;114.192;2023-02-08T17:38:13;16.70;99.90
41435;DHT22;27177;22.262;114.192;2023-02-08T17:40:40;16.70;99.90
41435;DHT22;27177;22.262;114.192;2023-02-08T17:43:09;16.70;99.90
41435;DHT22;27177;22.262;114.192;2023-02-08T17:45:36;16.70;99.90
41435;DHT22;27177;22.262;114.192;2023-02-08T17:48:04;16.70;99.90
41435;DHT22;27177;22.262;114.192;2023-02-08T17:50:30;16.70;99.90
41435;DHT22;27177;22.262;114.192;2023-02-08T17:52:57;16.60;99.90
41435;DHT22;27177;22.262;114.192;2023-02-08T17:55:23;16.60;99.90
41435;DHT22;27177;22.262;114.192;2023-02-08T17:57:50;16.60;99.90
41435;DHT22;27177;22.262;114.192;2023-02-08T18:00:18;16.60;99.90
41435;DHT22;27177;22.262;114.192;2023-02-08T18:02:50;16.60;99.90